Time;durP1;ratioP1;P1;durP2;ratioP2;P2;SDS_P1;SDS_P2;PMS_P1;PMS_P2;Temp;Humidity;BMP_temperature;BMP_pressure;BME280_temperature;BME280_humidity;BME280_pressure;Samples;Min_cycle;Max_cycle;Signal;HPM_P1;HPM_P2
2021/05/22 08:35:31;;;;;;;;;;;15.00;98.10;;;;;;5076007;23;20070;-95
2021/05/22 08:37:57;;;;;;;1.92;0.30;;;14.50;96.80;;;;;;5089473;28;20333;-94
2021/05/22 08:40:29;;;;;;;3.33;0.47;;;14.40;95.20;;;;;;5091942;28;20043;-96
2021/05/22 08:42:55;;;;;;;0.82;0.10;;;14.50;94.80;;;;;;5107388;28;20036;-96
2021/05/22 08:45:23;;;;;;;1.40;0.30;;;14.80;94.70;;;;;;5084414;22;20144;-85
2021/05/22 08:47:53;;;;;;;3.03;0.35;;;14.90;93.40;;;;;;5067987;28;20024;-84
2021/05/22 08:50:20;;;;;;;1.90;0.10;;;14.90;93.00;;;;;;5037010;28;20023;-85
2021/05/22 08:52:46;;;;;;;1.45;0.40;;;15.20;91.90;;;;;;5056026;28;20032;-84
2021/05/22 08:55:13;;;;;;;1.52;0.30;;;15.20;91.20;;;;;;5042557;28;20067;-84
2021/05/22 08:57:39;;;;;;;0.98;0.28;;;14.90;90.30;;;;;;5043040;28;20033;-84
2021/05/22 09:00:10;;;;;;;1.70;0.30;;;14.90;91.30;;;;;;5056315;28;20473;-84
2021/05/22 09:02:38;;;;;;;1.33;0.20;;;15.10;90.80;;;;;;5042233;28;20052;-85
2021/05/22 09:05:28;;;;;;;6.43;0.30;;;14.90;88.20;;;;;;5057819;28;20029;-84
2021/05/22 09:07:55;;;;;;;1.15;0.20;;;15.10;88.50;;;;;;5055518;28;20049;-85
2021/05/22 09:10:29;;;;;;;2.90;0.30;;;15.00;85.80;;;;;;5056855;28;20090;-85
2021/05/22 09:13:00;;;;;;;2.03;0.65;;;15.20;84.60;;;;;;5046900;28;20032;-85
2021/05/22 09:15:32;;;;;;;2.67;0.35;;;15.30;85.20;;;;;;5040266;28;20048;-84
2021/05/22 09:18:10;;;;;;;2.40;0.38;;;15.50;81.80;;;;;;5046268;28;20394;-85
2021/05/22 09:20:38;;;;;;;0.55;0.20;;;15.60;80.40;;;;;;5043041;28;20071;-85
2021/05/22 09:23:18;;;;;;;2.30;0.45;;;15.90;82.90;;;;;;5042750;28;20493;-84
2021/05/22 09:25:49;;;;;;;3.28;0.30;;;16.20;81.40;;;;;;5056345;28;20036;-85
2021/05/22 09:28:18;;;;;;;1.65;0.20;;;16.60;75.60;;;;;;5056827;28;20033;-85
2021/05/22 09:30:46;;;;;;;1.95;0.20;;;16.40;74.00;;;;;;5040141;28;20049;-84
2021/05/22 09:33:14;;;;;;;1.20;0.10;;;16.00;71.80;;;;;;5038021;28;20104;-85
2021/05/22 09:35:41;;;;;;;3.10;0.50;;;15.60;73.40;;;;;;5044704;28;20021;-85
2021/05/22 09:38:07;;;;;;;1.15;0.20;;;15.50;73.70;;;;;;5031135;28;20053;-84
2021/05/22 09:40:37;;;;;;;2.97;0.28;;;15.60;74.90;;;;;;5048316;28;20048;-84
2021/05/22 09:43:05;;;;;;;2.13;0.47;;;15.60;74.20;;;;;;5035945;28;20100;-84
2021/05/22 09:45:33;;;;;;;1.92;0.20;;;15.90;74.90;;;;;;5039722;28;20064;-85
2021/05/22 09:48:28;;;;;;;3.13;0.30;;;16.00;74.90;;;;;;5055635;28;20013;-85
2021/05/22 09:50:54;;;;;;;2.80;0.30;;;16.40;76.20;;;;;;5049086;28;20056;-85
2021/05/22 09:53:35;;;;;;;2.30;0.20;;;16.60;75.00;;;;;;5059522;28;20025;-85
2021/05/22 09:56:14;;;;;;;2.03;0.32;;;17.00;74.60;;;;;;5058919;28;20035;-85
2021/05/22 09:58:44;;;;;;;0.47;0.20;;;16.60;72.90;;;;;;5042216;28;20029;-84
2021/05/22 10:01:11;;;;;;;2.33;0.28;;;16.60;73.10;;;;;;5047317;28;20029;-84
2021/05/22 10:03:38;;;;;;;3.38;0.50;;;16.60;74.40;;;;;;5051791;28;20422;-84
2021/05/22 10:06:05;;;;;;;1.33;0.20;;;16.70;73.50;;;;;;5040267;28;20503;-84
2021/05/22 10:08:30;;;;;;;1.90;0.20;;;16.50;72.10;;;;;;5055678;28;20079;-83
2021/05/22 10:10:57;;;;;;;1.92;0.20;;;16.40;71.80;;;;;;5056075;28;20444;-83
2021/05/22 10:13:25;;;;;;;0.57;0.20;;;16.30;73.80;;;;;;5056175;28;20075;-83
2021/05/22 10:15:53;;;;;;;2.05;0.28;;;16.60;72.70;;;;;;5041615;28;20111;-83
2021/05/22 10:18:21;;;;;;;2.35;0.35;;;16.70;70.70;;;;;;5054572;28;20025;-83
2021/05/22 10:20:47;;;;;;;2.25;0.30;;;16.70;71.50;;;;;;5053472;28;20029;-82
2021/05/22 10:23:14;;;;;;;1.10;0.20;;;15.90;70.30;;;;;;5050183;28;20028;-82
2021/05/22 10:25:39;;;;;;;1.98;0.20;;;16.00;73.90;;;;;;5051937;28;20418;-83
2021/05/22 10:28:07;;;;;;;2.40;0.35;;;16.60;73.00;;;;;;5055176;28;20055;-85
2021/05/22 10:30:33;;;;;;;3.72;0.35;;;16.50;69.30;;;;;;5036663;28;20021;-83
2021/05/22 10:33:08;;;;;;;2.92;0.30;;;16.40;70.30;;;;;;5034108;28;20397;-84
2021/05/22 10:35:43;;;;;;;2.03;0.32;;;16.40;69.30;;;;;;5055258;28;20112;-84
2021/05/22 10:38:10;;;;;;;1.98;0.40;;;17.00;70.70;;;;;;5055654;28;20484;-84
2021/05/22 10:40:44;;;;;;;2.75;0.30;;;17.50;70.40;;;;;;5039504;28;20067;-83
2021/05/22 10:43:10;;;;;;;0.75;0.15;;;17.90;66.50;;;;;;5039280;28;20025;-84
2021/05/22 10:45:39;;;;;;;1.45;0.28;;;18.20;64.80;;;;;;5054128;28;20040;-84
2021/05/22 10:48:07;;;;;;;0.65;0.20;;;18.00;64.90;;;;;;5054270;28;20790;-85
2021/05/22 10:50:52;;;;;;;2.22;0.20;;;18.20;65.10;;;;;;5043176;28;20518;-84
2021/05/22 10:53:25;;;;;;;2.40;0.30;;;18.80;63.60;;;;;;5051851;28;20128;-87
2021/05/22 10:56:11;;;;;;;1.80;0.57;;;18.70;60.50;;;;;;5036195;28;20028;-84
2021/05/22 10:58:56;;;;;;;2.20;0.35;;;18.60;60.40;;;;;;5034805;28;20037;-85
2021/05/22 11:01:35;;;;;;;2.85;0.30;;;18.90;63.20;;;;;;5048581;28;20112;-85
2021/05/22 11:06:38;;;;;;;;;;;18.60;62.80;;;;;;5048037;28;20078;-85
2021/05/22 11:09:27;;;;;;;2.47;0.20;;;19.10;60.10;;;;;;5037246;28;19952;-85
2021/05/22 11:12:00;;;;;;;1.08;0.38;;;18.70;58.10;;;;;;5042065;28;20025;-86
2021/05/22 11:14:39;;;;;;;3.20;0.25;;;18.90;55.90;;;;;;5052641;28;20040;-86
2021/05/22 11:17:26;;;;;;;2.45;0.40;;;19.70;56.10;;;;;;5056853;28;20025;-85
2021/05/22 11:20:00;;;;;;;2.78;0.28;;;19.70;53.80;;;;;;5037641;28;20098;-86
2021/05/22 11:22:27;;;;;;;1.27;0.40;;;20.00;53.50;;;;;;5038535;28;20057;-85
2021/05/22 11:25:00;;;;;;;2.35;0.45;;;20.10;53.20;;;;;;5038510;28;20017;-86
2021/05/22 11:27:57;;;;;;;2.45;0.20;;;20.20;51.30;;;;;;5036112;28;20112;-85
2021/05/22 11:30:37;;;;;;;0.77;0.22;;;19.40;50.00;;;;;;5046350;28;20478;-85
2021/05/22 11:33:06;;;;;;;4.50;0.32;;;19.10;50.90;;;;;;5050272;28;20029;-85
2021/05/22 11:35:36;;;;;;;0.88;0.20;;;19.20;52.60;;;;;;5033879;28;20139;-85
2021/05/22 11:38:11;;;;;;;1.02;0.20;;;18.30;52.80;;;;;;5051048;28;20025;-85
2021/05/22 11:40:39;;;;;;;2.00;0.40;;;18.10;53.70;;;;;;5045750;28;20023;-85
2021/05/22 11:43:14;;;;;;;1.55;0.20;;;18.90;54.60;;;;;;5032844;28;20048;-85
2021/05/22 11:45:47;;;;;;;1.30;0.20;;;19.00;52.20;;;;;;5049711;28;20366;-85
2021/05/22 11:48:32;;;;;;;2.58;0.20;;;19.70;52.90;;;;;;5031198;28;20021;-85
2021/05/22 11:50:58;;;;;;;1.75;0.40;;;19.90;51.50;;;;;;5038121;28;20044;-84
2021/05/22 11:53:26;;;;;;;3.22;0.20;;;19.80;52.10;;;;;;5053449;28;20536;-85
2021/05/22 11:55:55;;;;;;;2.85;0.30;;;19.50;51.40;;;;;;5038977;28;20093;-85
2021/05/22 11:58:22;;;;;;;2.30;0.30;;;19.30;51.50;;;;;;5040700;28;20027;-85
2021/05/22 12:00:48;;;;;;;1.20;0.28;;;19.20;50.80;;;;;;5053472;28;20025;-85
2021/05/22 12:03:28;;;;;;;3.20;0.40;;;18.50;51.70;;;;;;5030097;28;20021;-86
2021/05/22 12:05:55;;;;;;;1.80;0.20;;;18.00;53.10;;;;;;5037378;28;20037;-85
2021/05/22 12:08:27;;;;;;;0.85;0.25;;;17.70;55.50;;;;;;5039558;28;20059;-85
2021/05/22 12:10:53;;;;;;;1.58;0.30;;;17.80;54.40;;;;;;5036050;28;20021;-85
2021/05/22 12:13:18;;;;;;;1.17;0.30;;;18.70;55.80;;;;;;5031614;28;20717;-85
2021/05/22 12:15:45;;;;;;;1.52;0.20;;;19.00;54.90;;;;;;5054537;28;20025;-86
2021/05/22 12:18:16;;;;;;;0.85;0.15;;;19.50;52.20;;;;;;5053540;28;20537;-85
2021/05/22 12:20:54;;;;;;;0.57;0.20;;;19.40;52.50;;;;;;5045872;28;20029;-85
2021/05/22 12:23:28;;;;;;;1.88;0.32;;;19.60;54.10;;;;;;5036830;28;20052;-85
2021/05/22 12:25:56;;;;;;;3.83;0.38;;;19.60;53.50;;;;;;5053554;28;20051;-86
2021/05/22 12:28:23;;;;;;;1.33;0.30;;;19.80;52.50;;;;;;5051811;28;20021;-85
2021/05/22 12:30:52;;;;;;;1.67;0.40;;;19.70;53.90;;;;;;5046968;28;20047;-85
2021/05/22 12:33:18;;;;;;;0.40;0.13;;;19.80;51.80;;;;;;5038522;28;20025;-84
2021/05/22 12:43:57;;;;;;;2.00;0.22;;;19.30;53.50;;;;;;5108756;28;20048;-88
2021/05/22 12:46:39;;;;;;;0.60;0.10;;;19.40;51.70;;;;;;5058573;28;20028;-88
2021/05/22 12:49:20;;;;;;;2.28;0.30;;;19.30;51.90;;;;;;5077228;28;20572;-88
2021/05/22 12:52:01;;;;;;;;;;;18.80;52.80;;;;;;5076090;28;20560;-87
2021/05/22 12:54:47;;;;;;;1.52;0.20;;;18.40;53.50;;;;;;5080259;28;19912;-87
2021/05/22 12:57:18;;;;;;;1.17;0.20;;;18.20;54.60;;;;;;5068885;28;20024;-87
2021/05/22 13:00:04;;;;;;;2.20;0.22;;;17.90;54.20;;;;;;5081375;28;20117;-87
2021/05/22 13:02:32;;;;;;;1.75;0.20;;;17.50;55.40;;;;;;5069088;28;20032;-88
2021/05/22 13:05:04;;;;;;;2.08;0.20;;;17.90;56.50;;;;;;5065163;28;20451;-88
2021/05/22 13:07:43;;;;;;;1.55;0.43;;;18.30;56.80;;;;;;5062482;28;20108;-88
2021/05/22 13:10:25;;;;;;;1.77;0.20;;;19.00;55.00;;;;;;5066396;28;20056;-88
2021/05/22 13:13:09;;;;;;;1.98;0.30;;;19.60;53.40;;;;;;5070218;28;20039;-89
2021/05/22 13:15:41;;;;;;;2.13;0.30;;;19.70;52.10;;;;;;5067748;28;20079;-89
2021/05/22 13:18:12;;;;;;;3.35;0.30;;;19.10;52.60;;;;;;5090120;28;20261;-87
2021/05/22 13:20:43;;;;;;;3.85;0.30;;;18.60;59.20;;;;;;5067325;28;20059;-88
2021/05/22 13:23:37;;;;;;;3.88;0.30;;;18.30;57.80;;;;;;5074431;28;20540;-88
2021/05/22 13:26:05;;;;;;;0.85;0.25;;;18.50;60.70;;;;;;5066228;28;20515;-88
2021/05/22 13:28:35;;;;;;;2.92;0.40;;;19.00;55.00;;;;;;5076099;28;20051;-88
2021/05/22 13:31:24;;;;;;;2.00;0.32;;;19.70;55.80;;;;;;5070989;28;20122;-88
2021/05/22 13:33:56;;;;;;;1.75;0.20;;;20.40;56.20;;;;;;5069843;28;20024;-88
2021/05/22 13:36:23;;;;;;;0.82;0.10;;;20.70;51.10;;;;;;5068985;28;20020;-88
2021/05/22 13:38:53;;;;;;;1.10;0.20;;;19.90;50.70;;;;;;5089433;28;20031;-86
2021/05/22 13:41:39;;;;;;;1.23;0.20;;;20.20;54.70;;;;;;5081972;28;20142;-86
2021/05/22 13:44:06;;;;;;;1.98;0.17;;;20.50;54.40;;;;;;5080174;28;20035;-86
2021/05/22 13:46:33;;;;;;;1.67;0.10;;;20.10;53.80;;;;;;5076024;28;20473;-86
2021/05/22 13:49:00;;;;;;;1.90;0.22;;;19.40;51.70;;;;;;5083164;28;20343;-86
2021/05/22 13:51:27;;;;;;;0.68;0.10;;;18.70;52.30;;;;;;5083797;28;20047;-86
2021/05/22 13:53:53;;;;;;;1.40;0.22;;;18.60;54.20;;;;;;5079413;28;20020;-86
2021/05/22 13:56:20;;;;;;;1.40;0.30;;;18.90;54.30;;;;;;5083230;28;20028;-85
2021/05/22 13:58:49;;;;;;;1.83;0.20;;;19.10;54.80;;;;;;5083155;28;20057;-86
2021/05/22 14:01:15;;;;;;;0.55;0.10;;;19.40;53.50;;;;;;5083633;28;20039;-86
2021/05/22 14:03:41;;;;;;;0.63;0.20;;;19.70;54.20;;;;;;5081528;28;20088;-85
2021/05/22 14:06:11;;;;;;;1.08;0.10;;;19.10;53.10;;;;;;5082287;28;20050;-85
2021/05/22 14:08:40;;;;;;;1.52;0.20;;;18.90;54.30;;;;;;5086981;28;20055;-85
2021/05/22 14:11:06;;;;;;;1.23;0.20;;;19.20;55.90;;;;;;5089194;28;20091;-86
2021/05/22 14:13:33;;;;;;;2.45;0.20;;;20.10;55.20;;;;;;5090023;28;20500;-86
2021/05/22 14:16:00;;;;;;;2.60;0.30;;;20.90;51.80;;;;;;5087620;28;20031;-86
2021/05/22 14:18:25;;;;;;;1.05;0.20;;;21.00;50.00;;;;;;5090908;28;20043;-86
2021/05/22 14:20:53;;;;;;;1.58;0.20;;;21.10;49.80;;;;;;5111900;28;20480;-85
2021/05/22 14:23:19;;;;;;;0.93;0.20;;;20.60;49.50;;;;;;5090701;28;20004;-86
2021/05/22 14:25:45;;;;;;;1.45;0.30;;;19.70;50.70;;;;;;5092843;28;20012;-85
2021/05/22 14:28:11;;;;;;;1.13;0.22;;;19.00;51.90;;;;;;5086638;28;20019;-85
2021/05/22 14:30:37;;;;;;;1.65;0.30;;;18.80;53.40;;;;;;5093583;28;20039;-86
2021/05/22 14:33:06;;;;;;;2.28;0.30;;;18.70;53.30;;;;;;5083369;28;20107;-85
2021/05/22 14:38:07;;;;;;;1.55;0.20;;;18.40;53.40;;;;;;5101113;28;20040;-83
2021/05/22 14:40:33;;;;;;;1.88;0.30;;;18.30;54.20;;;;;;5087289;28;20471;-84
2021/05/22 14:43:02;;;;;;;1.15;0.20;;;18.20;54.40;;;;;;5069403;28;20024;-84
2021/05/22 14:45:27;;;;;;;2.45;0.30;;;18.10;54.00;;;;;;5078920;28;20495;-83
2021/05/22 14:47:53;;;;;;;1.33;0.10;;;18.10;55.10;;;;;;5093707;28;20087;-83
2021/05/22 14:50:21;;;;;;;1.50;0.22;;;18.30;54.40;;;;;;5098035;28;20333;-83
2021/05/22 14:52:47;;;;;;;1.48;0.17;;;19.40;55.00;;;;;;5095938;28;20032;-84
2021/05/22 14:55:13;;;;;;;1.73;0.32;;;19.90;53.70;;;;;;5092039;28;20053;-84
2021/05/22 14:57:40;;;;;;;1.55;0.20;;;19.80;51.90;;;;;;5091480;28;20055;-83
2021/05/22 15:00:09;;;;;;;2.38;0.30;;;19.90;51.70;;;;;;5091181;28;20023;-84
2021/05/22 15:02:34;;;;;;;1.40;0.17;;;20.30;51.30;;;;;;5091622;28;20046;-84
2021/05/22 15:05:00;;;;;;;1.75;0.20;;;20.40;53.30;;;;;;5101584;28;20023;-84
2021/05/22 15:07:26;;;;;;;1.60;0.20;;;21.10;51.20;;;;;;5095590;28;20036;-84
2021/05/22 15:09:51;;;;;;;2.58;0.77;;;21.90;52.00;;;;;;5096859;28;20043;-84
2021/05/22 15:12:17;;;;;;;3.22;0.20;;;22.00;49.00;;;;;;5094369;28;20026;-84
2021/05/22 15:14:43;;;;;;;2.70;0.20;;;22.00;48.00;;;;;;5090616;28;20435;-84
2021/05/22 15:17:09;;;;;;;1.95;0.43;;;22.00;49.30;;;;;;5089785;28;20020;-84
2021/05/22 15:19:34;;;;;;;2.08;0.10;;;22.30;48.20;;;;;;5095943;28;20031;-84
2021/05/22 15:22:00;;;;;;;1.67;0.20;;;22.40;49.10;;;;;;5097090;28;20450;-85
2021/05/22 15:24:26;;;;;;;1.08;0.20;;;22.60;48.90;;;;;;5108854;28;20012;-85
2021/05/22 15:26:52;;;;;;;1.73;0.20;;;22.80;48.00;;;;;;5095366;28;20024;-85
2021/05/22 15:29:22;;;;;;;1.77;0.20;;;22.60;48.90;;;;;;5099923;28;20496;-86
2021/05/22 15:31:48;;;;;;;1.95;0.55;;;22.30;47.30;;;;;;5101304;28;20023;-86
2021/05/22 15:34:14;;;;;;;0.63;0.20;;;21.50;46.60;;;;;;5098542;28;20051;-85
2021/05/22 15:36:40;;;;;;;1.60;0.20;;;20.80;48.40;;;;;;5096948;28;20108;-85
2021/05/22 15:39:07;;;;;;;2.53;0.20;;;20.00;50.40;;;;;;5096095;28;20081;-85
2021/05/22 15:41:35;;;;;;;1.35;0.17;;;20.00;51.70;;;;;;5095868;28;20032;-85
2021/05/22 15:44:04;;;;;;;1.48;0.20;;;20.30;51.70;;;;;;5103815;28;20019;-85
2021/05/22 15:46:33;;;;;;;1.35;0.20;;;20.80;50.50;;;;;;5097759;28;20041;-85
2021/05/22 15:57:47;;;;;;;1.88;0.10;;;21.10;47.00;;;;;;5111522;28;20549;-85
2021/05/22 15:59:53;;;;;;;1.42;0.20;;;21.10;46.50;;;;;;5118649;28;20038;-85
2021/05/22 16:02:36;;;;;;;0.82;0.20;;;20.90;47.60;;;;;;5101824;28;20016;-85
2021/05/22 16:05:07;;;;;;;2.40;0.25;;;20.80;47.70;;;;;;5101173;28;20076;-85
2021/05/22 16:07:33;;;;;;;1.38;0.10;;;20.60;47.60;;;;;;5115965;28;20416;-85
2021/05/22 16:09:59;;;;;;;2.97;0.20;;;20.20;47.90;;;;;;5097240;28;20031;-85
2021/05/22 16:12:24;;;;;;;0.68;0.20;;;20.00;48.50;;;;;;5095013;28;20114;-85
2021/05/22 16:14:50;;;;;;;1.63;0.20;;;19.30;48.70;;;;;;5093945;28;20016;-85
2021/05/22 16:17:19;;;;;;;1.40;0.20;;;18.70;50.60;;;;;;5090647;28;20027;-85
2021/05/22 16:19:45;;;;;;;0.85;0.20;;;18.30;51.30;;;;;;5093901;28;20028;-85
2021/05/22 16:22:11;;;;;;;2.53;0.30;;;18.20;52.20;;;;;;5093079;28;20481;-86
2021/05/22 16:24:38;;;;;;;1.48;0.30;;;17.80;51.40;;;;;;5098525;28;20059;-85
2021/05/22 16:27:07;;;;;;;0.73;0.10;;;17.60;53.40;;;;;;5108954;28;20028;-85
2021/05/22 16:29:33;;;;;;;1.40;0.35;;;17.40;52.50;;;;;;5104445;28;20035;-85
2021/05/22 16:31:59;;;;;;;0.70;0.10;;;17.30;53.20;;;;;;5105666;28;20027;-85
2021/05/22 16:34:25;;;;;;;2.33;0.28;;;17.10;52.80;;;;;;5124514;28;20031;-85
2021/05/22 16:36:50;;;;;;;1.15;0.30;;;17.20;54.00;;;;;;5110164;28;20032;-85
2021/05/22 16:39:16;;;;;;;1.90;0.10;;;17.20;53.90;;;;;;5098716;28;20103;-86
2021/05/22 16:41:42;;;;;;;1.90;0.35;;;17.00;53.80;;;;;;5110469;28;20080;-86
2021/05/22 16:44:07;;;;;;;1.42;0.43;;;16.90;53.30;;;;;;5110783;28;20042;-86
2021/05/22 16:46:33;;;;;;;0.13;0.03;;;17.00;53.70;;;;;;5105322;28;20065;-86
2021/05/22 16:49:02;;;;;;;0.95;0.20;;;17.00;54.00;;;;;;5097743;28;20027;-86
2021/05/22 16:51:28;;;;;;;1.38;0.10;;;17.00;53.10;;;;;;5093267;28;20073;-86
2021/05/22 16:53:54;;;;;;;2.60;0.65;;;17.10;52.60;;;;;;5093357;28;20028;-85
2021/05/22 16:56:21;;;;;;;1.20;0.20;;;17.00;54.00;;;;;;5112691;28;20046;-86
2021/05/22 16:58:46;;;;;;;1.27;0.20;;;17.10;53.90;;;;;;5095881;28;20028;-85
2021/05/22 17:01:12;;;;;;;0.75;0.20;;;17.10;54.00;;;;;;5110535;28;20028;-86
2021/05/22 17:03:38;;;;;;;0.35;0.10;;;17.20;53.70;;;;;;5092093;28;20016;-86
2021/05/22 17:06:03;;;;;;;2.00;0.30;;;17.30;53.10;;;;;;5107795;28;20457;-86
2021/05/22 17:08:29;;;;;;;0.85;0.20;;;17.20;53.00;;;;;;5098134;28;20012;-86
2021/05/22 17:10:55;;;;;;;2.28;0.10;;;17.20;53.80;;;;;;5085481;28;20407;-86
2021/05/22 17:13:21;;;;;;;0.65;0.10;;;17.20;54.10;;;;;;5092899;28;20020;-86
2021/05/22 17:15:54;;;;;;;0.90;0.30;;;17.20;53.40;;;;;;5093664;28;20038;-85
2021/05/22 17:18:19;;;;;;;0.75;0.10;;;17.10;54.00;;;;;;5099655;28;20565;-86
2021/05/22 17:20:45;;;;;;;2.05;0.10;;;17.00;54.30;;;;;;5100420;28;20111;-86
2021/05/22 17:23:11;;;;;;;0.75;0.30;;;17.00;54.70;;;;;;5083736;28;20400;-85
2021/05/22 17:25:37;;;;;;;1.02;0.10;;;16.90;55.30;;;;;;5088150;28;20020;-86
2021/05/22 17:28:03;;;;;;;0.45;0.10;;;17.00;55.20;;;;;;5094129;28;20031;-86
2021/05/22 17:30:31;;;;;;;0.88;0.10;;;17.00;55.50;;;;;;5084364;28;20016;-86
2021/05/22 17:32:57;;;;;;;2.03;0.38;;;16.90;54.80;;;;;;5094593;28;20069;-84
2021/05/22 17:35:23;;;;;;;1.23;0.20;;;16.90;55.20;;;;;;5094426;28;20387;-87
2021/05/22 17:37:51;;;;;;;0.80;0.10;;;16.80;55.20;;;;;;5093581;28;20525;-87
2021/05/22 17:40:19;;;;;;;1.17;0.10;;;16.80;55.50;;;;;;5095112;28;20184;-86
2021/05/22 17:42:46;;;;;;;1.75;0.20;;;16.70;56.00;;;;;;5095444;28;20027;-86
2021/05/22 17:45:33;;;;;;;1.23;0.20;;;16.70;56.30;;;;;;5096717;28;20085;-86
2021/05/22 17:47:59;;;;;;;1.40;0.20;;;16.70;56.70;;;;;;5093779;28;20155;-87
2021/05/22 17:50:25;;;;;;;1.35;0.10;;;16.70;57.40;;;;;;5097220;28;20051;-87
2021/05/22 17:52:54;;;;;;;0.68;0.22;;;16.60;56.70;;;;;;5094320;28;20043;-86
2021/05/22 17:55:21;;;;;;;2.38;0.22;;;16.60;57.80;;;;;;5092006;28;20024;-86
2021/05/22 17:57:46;;;;;;;1.48;0.30;;;16.70;57.50;;;;;;5078675;28;20031;-86
2021/05/22 18:00:16;;;;;;;2.33;0.20;;;16.50;57.90;;;;;;5090282;28;20024;-87
2021/05/22 18:02:43;;;;;;;1.60;0.20;;;16.30;58.60;;;;;;5091215;28;20027;-87
2021/05/22 18:05:14;;;;;;;1.95;0.25;;;16.30;58.10;;;;;;5078300;28;20107;-87
2021/05/22 18:07:49;;;;;;;1.35;0.20;;;16.10;57.80;;;;;;5074738;28;20035;-87
2021/05/22 18:10:18;;;;;;;1.40;0.30;;;15.90;58.80;;;;;;5091523;28;20127;-87
2021/05/22 18:12:44;;;;;;;0.93;0.20;;;15.90;60.00;;;;;;5094333;28;20024;-88
2021/05/22 18:15:10;;;;;;;1.70;0.22;;;15.80;60.40;;;;;;5097514;28;20062;-87
2021/05/22 18:17:36;;;;;;;0.57;0.20;;;15.70;60.00;;;;;;5094112;28;20039;-87
2021/05/22 18:20:02;;;;;;;0.90;0.20;;;15.60;60.80;;;;;;5094107;28;20088;-86
2021/05/22 18:22:28;;;;;;;1.00;0.40;;;15.50;60.20;;;;;;5097334;28;20107;-87
2021/05/22 18:25:25;;;;;;;1.85;0.28;;;15.60;61.20;;;;;;5099116;28;20062;-87
2021/05/22 18:28:16;;;;;;;0.47;0.20;;;15.50;61.60;;;;;;5099319;28;20019;-87
2021/05/22 18:31:05;;;;;;;1.25;0.20;;;15.40;61.60;;;;;;5097908;28;20027;-87
2021/05/22 18:33:40;;;;;;;1.98;0.22;;;15.30;61.60;;;;;;5097862;28;20722;-87
2021/05/22 18:36:06;;;;;;;0.45;0.10;;;15.30;61.50;;;;;;5097194;28;20395;-88
2021/05/22 18:38:32;;;;;;;2.40;0.30;;;15.30;62.10;;;;;;5089693;28;20127;-88
2021/05/22 18:40:58;;;;;;;1.02;0.20;;;15.30;62.10;;;;;;5089521;28;20120;-88
2021/05/22 18:43:27;;;;;;;0.93;0.10;;;15.30;62.80;;;;;;5087071;28;20020;-88
2021/05/22 18:45:56;;;;;;;2.75;0.20;;;15.20;63.00;;;;;;5092085;28;20048;-88
2021/05/22 18:48:25;;;;;;;0.73;0.10;;;15.20;63.60;;;;;;5095709;28;20020;-87
2021/05/22 18:51:04;;;;;;;2.10;0.25;;;15.10;63.30;;;;;;5089212;27;20517;-87
2021/05/22 18:53:35;;;;;;;1.10;0.30;;;15.10;63.80;;;;;;5091048;28;20035;-88
2021/05/22 18:56:07;;;;;;;2.40;0.20;;;15.60;64.10;;;;;;5088872;28;20054;-86
2021/05/22 18:58:51;;;;;;;1.73;0.25;;;15.00;64.10;;;;;;5096573;28;20024;-87
2021/05/22 19:02:08;;;;;;;;;;;;;;;;;;;;;
2021/05/22 19:07:56;;;;;;;2.03;0.20;;;14.90;65.30;;;;;;5092804;28;20419;-86
2021/05/22 19:10:30;;;;;;;1.38;0.30;;;14.90;65.40;;;;;;5095612;28;20107;-86
2021/05/22 19:13:01;;;;;;;1.10;0.25;;;14.50;65.10;;;;;;5092810;28;20387;-86
2021/05/22 19:15:44;;;;;;;2.05;0.20;;;14.70;66.10;;;;;;5092634;28;20035;-86
2021/05/22 19:18:13;;;;;;;2.63;0.30;;;14.80;65.70;;;;;;5089861;28;20107;-86
2021/05/22 19:20:41;;;;;;;1.60;0.10;;;14.70;66.30;;;;;;5093094;28;20034;-86
2021/05/22 19:23:14;;;;;;;1.42;0.22;;;14.70;66.40;;;;;;5088207;28;20035;-86
2021/05/22 19:25:41;;;;;;;2.03;0.30;;;14.60;66.60;;;;;;5090405;28;20081;-86
2021/05/22 19:28:07;;;;;;;1.95;0.30;;;14.60;66.50;;;;;;5093418;28;20040;-87
2021/05/22 19:30:33;;;;;;;2.75;0.30;;;14.50;67.50;;;;;;5092063;28;20047;-87
2021/05/22 19:32:59;;;;;;;0.50;0.10;;;14.50;68.40;;;;;;5094623;28;20400;-86
2021/05/22 19:35:24;;;;;;;1.10;0.20;;;14.50;67.70;;;;;;5099726;28;20059;-87
2021/05/22 19:37:51;;;;;;;1.05;0.30;;;14.40;67.70;;;;;;5110768;28;20073;-86
2021/05/22 19:40:22;;;;;;;0.70;0.20;;;14.40;69.20;;;;;;5084523;28;20505;-88
2021/05/22 19:42:49;;;;;;;0.40;0.20;;;14.30;70.40;;;;;;5093860;28;20487;-86
2021/05/22 19:45:19;;;;;;;1.45;0.22;;;14.20;70.10;;;;;;5091944;28;20019;-86
2021/05/22 19:47:45;;;;;;;1.58;0.45;;;14.20;70.60;;;;;;5086718;28;20149;-88
2021/05/22 19:50:13;;;;;;;1.02;0.30;;;14.10;71.90;;;;;;5096225;28;20031;-86
2021/05/22 19:52:39;;;;;;;1.25;0.30;;;14.00;71.80;;;;;;5092166;28;20031;-86
2021/05/22 19:55:06;;;;;;;1.15;0.30;;;14.00;72.30;;;;;;5091620;28;20024;-86
2021/05/22 19:57:32;;;;;;;0.85;0.30;;;14.00;72.70;;;;;;5092068;28;20032;-86
2021/05/22 19:59:58;;;;;;;1.65;0.30;;;14.00;73.00;;;;;;5093977;28;20499;-86
2021/05/22 20:02:24;;;;;;;1.35;0.30;;;14.40;74.50;;;;;;5090246;28;20028;-86
2021/05/22 20:04:50;;;;;;;2.42;0.30;;;13.90;74.30;;;;;;5087298;28;20035;-87
2021/05/22 20:07:16;;;;;;;1.35;0.22;;;14.50;74.90;;;;;;5090289;28;20020;-88
2021/05/22 20:09:43;;;;;;;1.02;0.30;;;14.00;75.00;;;;;;5091781;28;20468;-86
2021/05/22 20:12:09;;;;;;;1.33;0.30;;;13.80;75.50;;;;;;5089396;28;20028;-86
2021/05/22 20:14:35;;;;;;;1.48;0.38;;;13.70;75.90;;;;;;5095685;28;20035;-86
2021/05/22 20:17:01;;;;;;;2.22;0.30;;;13.80;75.80;;;;;;5093916;28;20047;-85
2021/05/22 20:19:26;;;;;;;1.98;0.52;;;13.80;75.70;;;;;;5104419;28;20388;-86
2021/05/22 20:21:52;;;;;;;2.40;0.40;;;14.00;76.20;;;;;;5095542;28;20088;-86
2021/05/22 20:24:18;;;;;;;2.35;0.47;;;13.70;77.60;;;;;;5095909;28;20568;-86
2021/05/22 20:26:46;;;;;;;1.13;0.32;;;13.60;78.10;;;;;;5092445;28;20417;-86
2021/05/22 20:29:12;;;;;;;1.00;0.20;;;13.60;78.10;;;;;;5095827;28;20027;-85
2021/05/22 20:31:38;;;;;;;2.30;0.40;;;13.50;78.40;;;;;;5095410;28;20751;-86
2021/05/22 20:34:08;;;;;;;2.28;0.30;;;13.50;79.10;;;;;;5092464;27;20089;-88
2021/05/22 20:36:34;;;;;;;1.15;0.43;;;13.50;79.10;;;;;;5100373;28;20077;-86
2021/05/22 20:38:59;;;;;;;2.03;0.20;;;13.30;79.80;;;;;;5091842;28;20047;-86
2021/05/22 20:41:26;;;;;;;1.85;0.20;;;13.40;80.70;;;;;;5105882;28;20020;-86
2021/05/22 20:43:54;;;;;;;2.22;0.50;;;13.40;81.10;;;;;;5095325;28;20106;-86
2021/05/22 20:46:20;;;;;;;2.45;0.40;;;13.40;80.80;;;;;;5089897;28;20020;-86
2021/05/22 20:48:45;;;;;;;0.47;0.20;;;13.60;80.90;;;;;;5091042;28;20378;-87
2021/05/22 20:51:11;;;;;;;0.80;0.22;;;13.40;80.90;;;;;;5088853;28;20039;-86
2021/05/22 20:53:37;;;;;;;2.13;0.30;;;13.40;81.40;;;;;;5091645;28;20024;-87
2021/05/22 20:56:03;;;;;;;2.03;0.28;;;13.60;82.20;;;;;;5094803;28;20111;-86
2021/05/22 20:58:29;;;;;;;1.40;0.20;;;13.30;82.30;;;;;;5107801;28;20600;-85
2021/05/22 21:00:56;;;;;;;3.83;0.55;;;13.40;82.50;;;;;;5078440;28;20074;-85
2021/05/22 21:03:21;;;;;;;1.48;0.30;;;13.80;83.70;;;;;;5081652;28;20034;-86
2021/05/22 21:05:47;;;;;;;3.92;0.40;;;13.90;83.90;;;;;;5088551;28;20024;-86
2021/05/22 21:08:13;;;;;;;1.52;0.22;;;13.30;83.40;;;;;;5076539;28;20024;-86
2021/05/22 21:10:39;;;;;;;0.80;0.30;;;13.20;83.30;;;;;;5076798;28;20020;-87
2021/05/22 21:13:05;;;;;;;1.08;0.30;;;13.30;84.40;;;;;;5076842;28;20613;-86
2021/05/22 21:15:36;;;;;;;1.25;0.30;;;13.30;86.70;;;;;;5077908;28;20039;-86
2021/05/22 21:18:03;;;;;;;1.70;0.40;;;13.70;87.50;;;;;;5075706;28;20035;-85
2021/05/22 21:20:30;;;;;;;1.30;0.30;;;13.20;86.20;;;;;;5081379;28;20127;-86
2021/05/22 21:22:56;;;;;;;1.55;0.28;;;13.10;86.40;;;;;;5095977;28;20438;-87
2021/05/22 21:25:23;;;;;;;1.08;0.30;;;13.20;86.90;;;;;;5093072;28;20030;-87
2021/05/22 21:27:49;;;;;;;2.05;0.20;;;13.10;86.20;;;;;;5106546;28;20073;-88
2021/05/22 21:30:16;;;;;;;1.23;0.20;;;12.90;87.40;;;;;;5091675;28;20031;-86
2021/05/22 21:32:43;;;;;;;0.85;0.28;;;13.00;87.70;;;;;;5083976;28;20032;-87
2021/05/22 21:35:10;;;;;;;3.33;0.75;;;12.90;88.70;;;;;;5075922;28;20063;-87
2021/05/22 21:37:36;;;;;;;1.45;0.40;;;13.00;88.90;;;;;;5098622;28;20024;-86
2021/05/22 21:40:03;;;;;;;0.75;0.20;;;12.90;89.80;;;;;;5095734;28;20035;-87
2021/05/22 21:42:29;;;;;;;0.55;0.20;;;12.90;90.60;;;;;;5095983;28;20051;-86
2021/05/22 21:44:56;;;;;;;2.08;0.38;;;13.00;90.30;;;;;;5099835;28;20028;-87
2021/05/22 21:47:22;;;;;;;1.38;0.30;;;13.00;90.50;;;;;;5099727;28;20659;-86
2021/05/22 21:49:47;;;;;;;1.90;0.20;;;12.90;90.30;;;;;;5099784;28;20023;-86
2021/05/22 21:52:13;;;;;;;0.85;0.20;;;12.90;90.40;;;;;;5086003;28;20032;-86
2021/05/22 21:54:39;;;;;;;0.65;0.10;;;12.90;90.60;;;;;;5079473;28;20119;-86
2021/05/22 21:57:07;;;;;;;1.90;0.28;;;12.90;91.10;;;;;;5097754;28;20063;-87
2021/05/22 21:59:34;;;;;;;1.63;0.55;;;12.90;91.50;;;;;;5093679;28;20110;-87